Time;durP1;ratioP1;P1;durP2;ratioP2;P2;SDS_P1;SDS_P2;PMS_P1;PMS_P2;Temp;Humidity;BMP_temperature;BMP_pressure;BME280_temperature;BME280_humidity;BME280_pressure;Samples;Min_cycle;Max_cycle;Signal;HPM_P1;HPM_P2
2022/04/23 00:00:39;;;;;;;0.00;0.00;;;;;;;;;;5013481;28;20219;-75
2022/04/23 00:03:07;;;;;;;0.00;0.00;;;;;;;;;;4995673;28;20227;-73
2022/04/23 00:05:36;;;;;;;0.10;0.10;;;;;;;;;;4999677;28;20287;-74
2022/04/23 00:08:04;;;;;;;0.00;0.00;;;;;;;;;;5000412;28;20249;-74
2022/04/23 00:10:31;;;;;;;0.10;0.10;;;;;;;;;;4999268;28;20337;-74
2022/04/23 00:12:59;;;;;;;0.00;0.00;;;;;;;;;;5021250;28;20556;-74
2022/04/23 00:15:27;;;;;;;0.10;0.10;;;;;;;;;;5003652;28;20269;-74
2022/04/23 00:17:54;;;;;;;0.10;0.10;;;;;;;;;;5000131;28;20203;-74
2022/04/23 00:20:23;;;;;;;0.10;0.10;;;;;;;;;;5013506;28;20283;-74
2022/04/23 00:22:51;;;;;;;0.10;0.10;;;;;;;;;;5017556;28;20299;-74
2022/04/23 00:25:19;;;;;;;0.10;0.10;;;;;;;;;;5018433;28;20247;-75
2022/04/23 00:27:46;;;;;;;0.10;0.10;;;;;;;;;;4998998;28;20207;-75
2022/04/23 00:30:13;;;;;;;0.07;0.07;;;;;;;;;;5021722;28;20211;-74
2022/04/23 00:32:41;;;;;;;0.10;0.10;;;;;;;;;;5016234;28;20203;-74
2022/04/23 00:35:08;;;;;;;0.10;0.10;;;;;;;;;;5016112;28;20282;-74
2022/04/23 00:37:36;;;;;;;0.10;0.10;;;;;;;;;;5002603;28;20210;-74
2022/04/23 00:40:06;;;;;;;0.10;0.10;;;;;;;;;;5001227;28;20200;-74
2022/04/23 00:42:34;;;;;;;0.00;0.00;;;;;;;;;;4999758;28;20239;-74
2022/04/23 00:45:01;;;;;;;0.10;0.10;;;;;;;;;;5015805;28;20744;-74
2022/04/23 00:47:28;;;;;;;0.10;0.10;;;;;;;;;;5012882;28;20200;-74
2022/04/23 00:49:56;;;;;;;0.10;0.10;;;;;;;;;;5022447;28;20208;-75
2022/04/23 00:52:24;;;;;;;0.00;0.00;;;;;;;;;;5018156;28;20204;-73
2022/04/23 00:54:51;;;;;;;0.10;0.10;;;;;;;;;;5012750;28;20315;-73
2022/04/23 00:57:20;;;;;;;0.03;0.03;;;;;;;;;;4998828;28;20199;-74
2022/04/23 00:59:49;;;;;;;0.10;0.10;;;;;;;;;;5018350;28;20227;-74
2022/04/23 01:02:16;;;;;;;0.10;0.10;;;;;;;;;;5016056;28;20196;-74
2022/04/23 01:04:44;;;;;;;0.10;0.10;;;;;;;;;;5017821;28;20769;-73
2022/04/23 01:07:13;;;;;;;0.10;0.10;;;;;;;;;;5013600;28;20199;-74
2022/04/23 01:09:41;;;;;;;0.10;0.10;;;;;;;;;;4996176;28;20338;-73
2022/04/23 01:12:08;;;;;;;0.00;0.00;;;;;;;;;;5019950;28;20200;-74
2022/04/23 01:14:57;;;;;;;0.10;0.10;;;;;;;;;;5002058;28;20224;-74
2022/04/23 01:17:24;;;;;;;0.10;0.10;;;;;;;;;;5004374;28;20286;-74
2022/04/23 01:19:51;;;;;;;0.10;0.10;;;;;;;;;;4998603;28;20627;-73
2022/04/23 01:22:20;;;;;;;0.10;0.10;;;;;;;;;;5001768;28;20353;-74
2022/04/23 01:24:50;;;;;;;0.10;0.10;;;;;;;;;;4992240;28;20319;-74
2022/04/23 01:27:18;;;;;;;0.10;0.10;;;;;;;;;;4996721;28;20215;-74
2022/04/23 01:29:46;;;;;;;0.10;0.10;;;;;;;;;;5001178;28;20285;-73
2022/04/23 01:32:13;;;;;;;0.10;0.10;;;;;;;;;;5019389;28;20223;-73
2022/04/23 01:34:40;;;;;;;0.10;0.10;;;;;;;;;;5017120;28;20234;-74
2022/04/23 01:37:08;;;;;;;0.10;0.10;;;;;;;;;;5015180;28;20301;-73
2022/04/23 01:39:37;;;;;;;0.10;0.10;;;;;;;;;;4998942;28;20785;-73
2022/04/23 01:42:04;;;;;;;0.10;0.10;;;;;;;;;;5014746;28;20709;-74
2022/04/23 01:44:31;;;;;;;0.10;0.10;;;;;;;;;;4999410;28;20698;-74
2022/04/23 01:46:58;;;;;;;0.10;0.10;;;;;;;;;;4998784;28;20659;-73
2022/04/23 01:49:26;;;;;;;0.10;0.10;;;;;;;;;;5002508;28;20567;-73
2022/04/23 01:51:53;;;;;;;0.10;0.10;;;;;;;;;;5017056;28;20661;-73
2022/04/23 01:54:20;;;;;;;0.10;0.10;;;;;;;;;;5003974;28;20650;-74
2022/04/23 01:56:49;;;;;;;0.10;0.10;;;;;;;;;;5001733;28;20632;-74
2022/04/23 01:59:16;;;;;;;0.10;0.10;;;;;;;;;;5020823;28;20602;-73
2022/04/23 02:01:44;;;;;;;0.10;0.10;;;;;;;;;;5003803;28;20681;-74
2022/04/23 02:04:11;;;;;;;0.10;0.10;;;8.40;99.90;;;;;;5005228;28;20670;-73
2022/04/23 02:06:38;;;;;;;0.10;0.10;;;8.40;99.90;;;;;;5000525;28;20638;-73
2022/04/23 02:09:05;;;;;;;0.10;0.10;;;8.40;99.90;;;;;;5004577;28;20626;-74
2022/04/23 02:11:32;;;;;;;0.10;0.10;;;8.40;99.90;;;;;;5002787;28;20682;-73
2022/04/23 02:14:02;;;;;;;0.10;0.10;;;8.30;99.90;;;;;;5003558;28;20681;-74
2022/04/23 02:16:29;;;;;;;0.10;0.10;;;8.20;99.90;;;;;;5002156;28;20630;-73
2022/04/23 02:18:57;;;;;;;0.10;0.10;;;8.20;99.90;;;;;;5012206;28;20611;-73
2022/04/23 02:21:24;;;;;;;0.10;0.10;;;;;;;;;;5002476;28;20669;-73
2022/04/23 02:23:51;;;;;;;0.00;0.00;;;8.00;99.90;;;;;;4998648;28;20667;-74
2022/04/23 02:26:20;;;;;;;0.10;0.10;;;7.90;99.90;;;;;;5013641;28;20633;-74
2022/04/23 02:28:47;;;;;;;0.10;0.10;;;7.90;99.90;;;;;;5006216;28;20638;-73
2022/04/23 02:31:16;;;;;;;0.10;0.10;;;7.90;99.90;;;;;;5019893;28;20621;-74
2022/04/23 02:33:44;;;;;;;0.10;0.10;;;;;;;;;;5018664;28;20649;-74
2022/04/23 02:36:11;;;;;;;0.10;0.10;;;7.80;99.90;;;;;;4999265;28;20638;-74
2022/04/23 02:38:40;;;;;;;0.10;0.10;;;7.80;99.90;;;;;;5012205;28;20615;-73
2022/04/23 02:41:07;;;;;;;0.10;0.10;;;7.80;99.90;;;;;;5016179;28;20618;-74
2022/04/23 02:43:35;;;;;;;0.10;0.10;;;7.80;99.90;;;;;;5008154;28;20673;-73
2022/04/23 02:46:02;;;;;;;0.10;0.10;;;7.80;99.90;;;;;;5001782;28;20719;-73
2022/04/23 02:48:31;;;;;;;0.10;0.10;;;7.80;99.90;;;;;;5017374;28;20633;-73
2022/04/23 02:50:58;;;;;;;0.10;0.10;;;7.80;99.90;;;;;;4997734;28;20637;-73
2022/04/23 02:53:26;;;;;;;0.10;0.10;;;7.80;99.90;;;;;;4993941;28;20646;-74
2022/04/23 02:55:56;;;;;;;0.10;0.10;;;7.80;99.90;;;;;;5016633;28;20618;-74
2022/04/23 02:58:25;;;;;;;0.10;0.10;;;;;;;;;;5019450;28;20614;-73
2022/04/23 03:00:53;;;;;;;0.10;0.10;;;;;;;;;;5001571;28;20634;-73
2022/04/23 03:03:21;;;;;;;0.10;0.10;;;;;;;;;;5004427;28;20665;-74
2022/04/23 03:05:51;;;;;;;0.10;0.10;;;;;;;;;;5021114;28;20688;-73
2022/04/23 03:08:19;;;;;;;0.10;0.10;;;7.50;99.90;;;;;;5000026;28;20632;-73
2022/04/23 03:10:46;;;;;;;0.10;0.10;;;7.40;99.90;;;;;;5001385;28;20659;-73
2022/04/23 03:13:14;;;;;;;0.00;0.00;;;7.30;99.90;;;;;;4999915;28;20637;-73
2022/04/23 03:15:44;;;;;;;0.07;0.07;;;7.20;99.90;;;;;;5010316;28;20686;-74
2022/04/23 03:18:13;;;;;;;0.10;0.10;;;7.20;99.90;;;;;;5016780;28;20603;-73
2022/04/23 03:20:42;;;;;;;0.10;0.10;;;7.10;99.90;;;;;;5001505;28;21206;-73
2022/04/23 03:23:11;;;;;;;0.10;0.10;;;7.10;99.90;;;;;;5003151;28;20749;-74
2022/04/23 03:25:40;;;;;;;0.00;0.00;;;;;;;;;;5012079;28;20798;-73
2022/04/23 03:28:08;;;;;;;0.10;0.10;;;;;;;;;;5008256;28;20706;-74
2022/04/23 03:30:36;;;;;;;0.10;0.10;;;;;;;;;;4998767;28;20620;-73
2022/04/23 03:33:03;;;;;;;0.10;0.10;;;;;;;;;;5004562;28;20626;-73
2022/04/23 03:35:30;;;;;;;0.10;0.10;;;;;;;;;;5018195;28;20627;-74
2022/04/23 03:38:01;;;;;;;0.10;0.10;;;;;;;;;;5004161;28;20740;-74
2022/04/23 03:40:30;;;;;;;0.10;0.10;;;;;;;;;;5002234;28;20618;-74
2022/04/23 03:42:57;;;;;;;0.10;0.10;;;;;;;;;;5002012;28;20638;-74
2022/04/23 03:45:24;;;;;;;0.10;0.10;;;;;;;;;;5001151;28;20813;-74
2022/04/23 03:47:52;;;;;;;0.10;0.10;;;;;;;;;;5019047;28;20618;-74
2022/04/23 03:50:20;;;;;;;0.10;0.10;;;;;;;;;;5016317;28;20625;-74
2022/04/23 03:52:47;;;;;;;0.10;0.10;;;;;;;;;;5003940;28;20642;-74
2022/04/23 03:55:14;;;;;;;0.10;0.10;;;;;;;;;;4999787;28;21218;-74
2022/04/23 03:57:49;;;;;;;0.10;0.10;;;;;;;;;;5014429;28;20678;-73
2022/04/23 04:00:19;;;;;;;0.10;0.10;;;;;;;;;;4998486;28;20725;-73
2022/04/23 04:02:47;;;;;;;0.10;0.10;;;;;;;;;;4998008;28;20981;-73
2022/04/23 04:05:15;;;;;;;0.10;0.10;;;;;;;;;;4999378;28;20675;-73
2022/04/23 04:07:43;;;;;;;0.10;0.10;;;7.10;99.90;;;;;;4994357;28;20622;-73
2022/04/23 04:10:11;;;;;;;0.10;0.10;;;;;;;;;;5016241;28;20635;-74
2022/04/23 04:12:38;;;;;;;0.10;0.10;;;6.30;99.90;;;;;;4999746;28;20651;-74
2022/04/23 04:15:09;;;;;;;0.10;0.10;;;;;;;;;;5003108;28;20699;-74
2022/04/23 04:17:37;;;;;;;0.10;0.10;;;;;;;;;;5001132;28;20629;-74
2022/04/23 04:20:05;;;;;;;0.10;0.10;;;;;;;;;;4999350;28;20722;-74
2022/04/23 04:22:32;;;;;;;0.10;0.10;;;;;;;;;;5001408;28;20682;-74
2022/04/23 04:25:00;;;;;;;0.10;0.10;;;;;;;;;;4999493;28;20674;-74
2022/04/23 04:27:27;;;;;;;0.10;0.10;;;;;;;;;;5019495;28;20699;-74
2022/04/23 04:29:54;;;;;;;0.10;0.10;;;;;;;;;;5005381;28;21021;-74
2022/04/23 04:32:23;;;;;;;0.10;0.10;;;;;;;;;;4999913;28;20652;-74
2022/04/23 04:34:50;;;;;;;0.10;0.10;;;;;;;;;;4997603;28;20669;-74
2022/04/23 04:37:18;;;;;;;0.10;0.10;;;;;;;;;;5019117;28;20606;-74
2022/04/23 04:39:45;;;;;;;0.10;0.10;;;;;;;;;;5018500;28;20614;-73
2022/04/23 04:42:14;;;;;;;0.10;0.10;;;;;;;;;;5016113;28;20729;-74
2022/04/23 04:44:41;;;;;;;0.10;0.10;;;;;;;;;;5009447;28;20717;-74
2022/04/23 04:47:09;;;;;;;0.10;0.10;;;;;;;;;;5019027;28;20738;-74
2022/04/23 04:49:39;;;;;;;0.10;0.10;;;;;;;;;;5017203;28;20620;-74
2022/04/23 04:52:06;;;;;;;0.10;0.10;;;;;;;;;;5014914;28;20726;-74
2022/04/23 04:54:34;;;;;;;0.10;0.10;;;;;;;;;;5018817;28;20643;-74
2022/04/23 04:57:02;;;;;;;0.10;0.10;;;;;;;;;;4998340;28;21217;-73
2022/04/23 04:59:31;;;;;;;0.10;0.10;;;;;;;;;;5013110;28;20603;-74
2022/04/23 05:01:59;;;;;;;0.10;0.10;;;;;;;;;;4999625;28;20657;-74
2022/04/23 05:04:27;;;;;;;0.10;0.10;;;;;;;;;;5001275;28;20686;-74
2022/04/23 05:06:55;;;;;;;0.10;0.10;;;;;;;;;;4992699;28;20638;-74
2022/04/23 05:09:23;;;;;;;0.10;0.10;;;6.30;99.90;;;;;;5019238;28;20641;-74
2022/04/23 05:11:50;;;;;;;0.10;0.10;;;8.30;99.90;;;;;;5003091;28;20629;-74
2022/04/23 05:14:18;;;;;;;0.10;0.10;;;8.50;99.90;;;;;;5019991;28;20642;-74
2022/04/23 05:16:45;;;;;;;0.10;0.10;;;8.70;99.90;;;;;;5018376;28;20615;-74
2022/04/23 05:19:13;;;;;;;0.10;0.10;;;8.80;99.90;;;;;;5004612;28;20640;-75
2022/04/23 05:21:40;;;;;;;0.10;0.10;;;8.90;99.90;;;;;;5014910;28;20624;-74
2022/04/23 05:24:08;;;;;;;0.10;0.10;;;8.90;99.90;;;;;;5013815;28;20655;-75
2022/04/23 05:26:36;;;;;;;0.10;0.10;;;9.00;99.90;;;;;;4997254;28;20631;-75
2022/04/23 05:29:03;;;;;;;0.10;0.10;;;9.10;99.90;;;;;;5021286;28;20713;-74
2022/04/23 05:31:32;;;;;;;0.10;0.10;;;9.20;99.90;;;;;;5002094;28;20635;-75
2022/04/23 05:33:59;;;;;;;0.10;0.10;;;9.40;99.90;;;;;;5001911;28;20654;-75
2022/04/23 05:36:26;;;;;;;0.10;0.10;;;9.50;99.90;;;;;;5017292;28;21246;-75
2022/04/23 05:38:53;;;;;;;0.10;0.10;;;9.50;99.90;;;;;;5018154;28;20599;-75
2022/04/23 05:41:22;;;;;;;0.10;0.10;;;9.60;99.90;;;;;;5002821;28;20696;-75
2022/04/23 05:43:49;;;;;;;0.10;0.10;;;9.80;99.90;;;;;;5004013;28;20660;-75
2022/04/23 05:46:17;;;;;;;0.10;0.10;;;9.90;99.90;;;;;;5015464;28;20662;-75
2022/04/23 05:48:44;;;;;;;0.10;0.10;;;10.20;99.90;;;;;;5003088;28;20669;-75
2022/04/23 05:51:11;;;;;;;0.10;0.10;;;10.30;99.90;;;;;;5001396;28;20634;-75
2022/04/23 05:53:38;;;;;;;0.10;0.10;;;10.50;99.90;;;;;;5008507;28;20651;-75
2022/04/23 05:56:05;;;;;;;0.10;0.10;;;10.60;99.90;;;;;;5004770;28;20192;-75
2022/04/23 05:58:36;;;;;;;0.10;0.10;;;10.80;99.90;;;;;;5018116;28;20208;-75
2022/04/23 06:01:03;;;;;;;0.10;0.10;;;10.90;99.90;;;;;;5014751;28;20209;-75
2022/04/23 06:03:31;;;;;;;0.10;0.10;;;10.90;99.90;;;;;;5006814;28;20227;-75
2022/04/23 06:05:58;;;;;;;0.10;0.10;;;;;;;;;;5005822;28;20307;-75
2022/04/23 06:08:25;;;;;;;0.10;0.10;;;;;;;;;;5000377;28;20204;-75
2022/04/23 06:10:52;;;;;;;0.10;0.10;;;11.00;99.90;;;;;;5024528;28;20208;-75
2022/04/23 06:13:19;;;;;;;0.00;0.00;;;11.30;99.90;;;;;;5023385;28;20226;-75
2022/04/23 06:15:48;;;;;;;0.10;0.10;;;11.30;99.90;;;;;;5002876;28;20220;-76
2022/04/23 06:18:14;;;;;;;0.10;0.10;;;11.40;99.90;;;;;;5022098;28;20207;-75
2022/04/23 06:20:41;;;;;;;0.10;0.10;;;11.40;99.90;;;;;;5010401;28;20200;-76
2022/04/23 06:23:08;;;;;;;0.10;0.10;;;11.60;99.90;;;;;;5003916;28;20227;-76
2022/04/23 06:25:36;;;;;;;0.10;0.10;;;11.60;99.90;;;;;;5013323;28;20229;-75
2022/04/23 06:28:04;;;;;;;0.10;0.10;;;;;;;;;;5004433;28;20199;-75
2022/04/23 06:30:31;;;;;;;0.10;0.10;;;;;;;;;;5005049;28;20218;-75
2022/04/23 06:33:00;;;;;;;0.10;0.10;;;;;;;;;;5023994;28;20275;-75
2022/04/23 06:35:27;;;;;;;0.10;0.10;;;;;;;;;;5003766;28;20204;-75
2022/04/23 06:37:55;;;;;;;0.10;0.10;;;;;;;;;;5005154;28;20199;-76
2022/04/23 06:40:22;;;;;;;0.10;0.10;;;;;;;;;;5002767;28;20693;-75
2022/04/23 06:42:50;;;;;;;0.10;0.10;;;;;;;;;;5001489;28;20215;-76
2022/04/23 06:45:20;;;;;;;0.00;0.00;;;;;;;;;;5001312;28;20319;-76
2022/04/23 06:47:48;;;;;;;0.10;0.10;;;;;;;;;;5016725;28;20299;-75
2022/04/23 06:50:16;;;;;;;0.10;0.10;;;;;;;;;;5016971;28;20212;-76
2022/04/23 06:52:45;;;;;;;0.10;0.10;;;;;;;;;;5005393;28;20636;-74
2022/04/23 06:55:12;;;;;;;0.10;0.10;;;;;;;;;;4998361;28;20247;-75
2022/04/23 06:57:46;;;;;;;0.10;0.10;;;11.70;99.90;;;;;;5017956;28;20235;-75
2022/04/23 07:00:14;;;;;;;0.10;0.10;;;13.20;99.90;;;;;;5005086;28;20231;-76
2022/04/23 07:02:41;;;;;;;0.10;0.10;;;13.10;99.90;;;;;;5003323;28;20210;-75
2022/04/23 07:05:09;;;;;;;0.10;0.10;;;;;;;;;;5023184;28;20236;-75
2022/04/23 07:07:38;;;;;;;0.10;0.10;;;;;;;;;;5018852;28;20207;-76
2022/04/23 07:10:06;;;;;;;0.10;0.10;;;13.30;99.90;;;;;;5001559;28;20299;-75
2022/04/23 07:12:34;;;;;;;0.00;0.00;;;;;;;;;;5022032;28;20232;-75
2022/04/23 07:15:03;;;;;;;0.00;0.00;;;;;;;;;;5005327;28;20220;-75
2022/04/23 07:17:30;;;;;;;0.00;0.00;;;;;;;;;;5004648;28;20235;-75
2022/04/23 07:19:58;;;;;;;0.10;0.10;;;13.70;99.90;;;;;;5004878;28;20211;-75
2022/04/23 07:22:25;;;;;;;0.10;0.10;;;;;;;;;;5055061;23;20789;-71
2022/04/23 07:24:54;;;;;;;0.10;0.10;;;;;;;;;;5045818;28;20238;-71
2022/04/23 07:27:21;;;;;;;0.10;0.10;;;14.20;99.90;;;;;;5033670;28;20237;-72
2022/04/23 07:29:49;;;;;;;0.00;0.00;;;;;;;;;;5028567;28;20210;-71
2022/04/23 07:32:19;;;;;;;0.00;0.00;;;;;;;;;;5047640;28;20210;-72
2022/04/23 07:37:33;;;;;;;0.10;0.10;;;14.50;99.90;;;;;;5025953;28;20219;-72
2022/04/23 07:40:02;;;;;;;0.10;0.10;;;;;;;;;;5030226;28;20203;-72
2022/04/23 07:42:29;;;;;;;0.07;0.07;;;;;;;;;;5042529;28;20282;-72
2022/04/23 07:44:57;;;;;;;0.10;0.10;;;;;;;;;;5011005;23;20281;-73
2022/04/23 07:47:24;;;;;;;0.00;0.00;;;14.50;99.90;;;;;;4992382;28;20240;-73
2022/04/23 07:49:52;;;;;;;0.10;0.10;;;14.60;99.90;;;;;;4967285;28;20213;-73
2022/04/23 07:52:19;;;;;;;0.00;0.00;;;14.40;99.90;;;;;;4981127;28;20206;-74
2022/04/23 07:54:46;;;;;;;0.00;0.00;;;14.40;99.90;;;;;;4968252;28;20209;-74
2022/04/23 07:57:14;;;;;;;0.00;0.00;;;14.10;99.90;;;;;;4981492;28;20232;-73
2022/04/23 07:59:42;;;;;;;0.10;0.10;;;14.20;99.90;;;;;;4972983;28;20197;-73
2022/04/23 08:02:09;;;;;;;0.10;0.10;;;14.50;99.90;;;;;;4982050;28;20205;-73
2022/04/23 08:04:37;;;;;;;0.00;0.00;;;;;;;;;;4967819;28;20682;-74
2022/04/23 08:07:07;;;;;;;0.03;0.03;;;;;;;;;;4971209;28;20220;-73
2022/04/23 08:09:39;;;;;;;0.00;0.00;;;;;;;;;;4986888;28;20200;-73
2022/04/23 08:12:07;;;;;;;0.00;0.00;;;14.60;99.90;;;;;;4970486;28;20280;-71
2022/04/23 08:14:38;;;;;;;0.00;0.00;;;;;;;;;;4974259;28;20228;-74
2022/04/23 08:17:05;;;;;;;0.00;0.00;;;;;;;;;;4983436;28;20217;-76
2022/04/23 08:19:33;;;;;;;0.03;0.03;;;;;;;;;;4971886;28;20228;-75
2022/04/23 08:22:00;;;;;;;0.00;0.00;;;;;;;;;;4986927;28;20197;-76
2022/04/23 08:24:28;;;;;;;0.10;0.10;;;;;;;;;;4977298;28;20209;-77
2022/04/23 08:26:55;;;;;;;0.00;0.00;;;;;;;;;;4975277;28;20221;-76
2022/04/23 08:32:09;;;;;;;0.00;0.00;;;;;;;;;;4991009;28;20236;-78
2022/04/23 08:34:36;;;;;;;0.10;0.10;;;;;;;;;;4967460;28;20238;-77
2022/04/23 08:37:03;;;;;;;0.00;0.00;;;;;;;;;;4984050;28;20216;-77
2022/04/23 08:39:31;;;;;;;0.00;0.00;;;;;;;;;;4991591;28;20224;-78
2022/04/23 08:42:01;;;;;;;0.00;0.00;;;;;;;;;;4990424;28;20215;-76
2022/04/23 08:44:31;;;;;;;0.00;0.00;;;;;;;;;;4983040;28;20213;-77
2022/04/23 08:46:59;;;;;;;0.00;0.00;;;;;;;;;;4988671;28;20269;-76
2022/04/23 08:49:31;;;;;;;0.00;0.00;;;;;;;;;;4985678;28;20231;-76
2022/04/23 08:52:03;;;;;;;0.00;0.00;;;;;;;;;;4989664;28;20244;-78
2022/04/23 08:54:31;;;;;;;0.00;0.00;;;;;;;;;;4980944;28;20211;-76
2022/04/23 08:56:58;;;;;;;0.00;0.00;;;;;;;;;;4988313;28;20217;-77
2022/04/23 08:59:26;;;;;;;0.00;0.00;;;;;;;;;;4986658;28;20314;-76
2022/04/23 09:01:54;;;;;;;0.00;0.00;;;;;;;;;;4971855;28;20212;-76
2022/04/23 09:04:21;;;;;;;0.00;0.00;;;;;;;;;;4969830;28;20264;-73
2022/04/23 09:06:50;;;;;;;0.00;0.00;;;;;;;;;;4983800;28;20244;-76
2022/04/23 09:09:20;;;;;;;0.00;0.00;;;;;;;;;;4969772;28;20209;-75
2022/04/23 09:11:50;;;;;;;0.00;0.00;;;;;;;;;;4986580;28;20208;-76
2022/04/23 09:14:25;;;;;;;0.07;0.07;;;;;;;;;;4981947;28;20205;-76
2022/04/23 09:25:17;;;;;;;0.00;0.00;;;;;;;;;;4987926;28;20200;-79
2022/04/23 09:27:44;;;;;;;0.00;0.00;;;;;;;;;;4990160;28;20225;-78
2022/04/23 09:30:12;;;;;;;0.00;0.00;;;;;;;;;;4974209;28;20204;-78
2022/04/23 09:32:39;;;;;;;0.00;0.00;;;;;;;;;;4996229;28;20219;-78
2022/04/23 09:35:08;;;;;;;0.00;0.00;;;;;;;;;;4987331;28;20212;-77
2022/04/23 09:40:22;;;;;;;0.00;0.00;;;;;;;;;;4982548;28;20331;-72
2022/04/23 09:42:57;;;;;;;0.00;0.00;;;;;;;;;;4988695;28;20582;-76
2022/04/23 09:45:26;;;;;;;0.00;0.00;;;;;;;;;;4987561;28;20231;-75
2022/04/23 09:47:53;;;;;;;0.00;0.00;;;;;;;;;;4985291;28;20221;-76
2022/04/23 09:50:21;;;;;;;0.00;0.00;;;;;;;;;;4969092;28;20197;-74
2022/04/23 09:52:50;;;;;;;0.00;0.00;;;;;;;;;;4984601;28;20212;-79
2022/04/23 09:55:22;;;;;;;0.00;0.00;;;;;;;;;;4969961;28;20595;-75
2022/04/23 09:57:52;;;;;;;0.00;0.00;;;;;;;;;;4979001;28;20231;-75
2022/04/23 10:00:20;;;;;;;0.00;0.00;;;;;;;;;;4970365;28;20476;-77
2022/04/23 10:02:50;;;;;;;0.07;0.07;;;;;;;;;;4987649;28;20205;-76
2022/04/23 10:05:19;;;;;;;0.10;0.10;;;;;;;;;;4989201;28;20213;-76
2022/04/23 10:07:48;;;;;;;0.00;0.00;;;;;;;;;;4966467;28;20221;-76
2022/04/23 10:10:21;;;;;;;0.00;0.00;;;;;;;;;;4969758;28;20235;-77
2022/04/23 10:12:50;;;;;;;0.00;0.00;;;;;;;;;;4981995;28;20198;-76
2022/04/23 10:15:17;;;;;;;0.00;0.00;;;;;;;;;;4988354;28;20267;-77
2022/04/23 10:17:45;;;;;;;0.03;0.03;;;;;;;;;;4984269;28;20220;-76
2022/04/23 10:20:16;;;;;;;0.00;0.00;;;;;;;;;;4992801;28;20574;-76
2022/04/23 10:22:58;;;;;;;0.07;0.07;;;;;;;;;;4980751;28;20202;-76
2022/04/23 10:25:36;;;;;;;0.00;0.00;;;;;;;;;;4987735;28;20197;-76
2022/04/23 10:28:04;;;;;;;0.00;0.00;;;;;;;;;;4989032;28;20271;-76
2022/04/23 10:30:32;;;;;;;0.00;0.00;;;;;;;;;;4986985;28;20284;-76
2022/04/23 10:33:20;;;;;;;0.10;0.10;;;;;;;;;;4979096;28;20220;-76
2022/04/23 10:36:02;;;;;;;0.00;0.00;;;;;;;;;;4983924;28;20244;-76
2022/04/23 10:38:29;;;;;;;0.00;0.00;;;18.10;99.90;;;;;;4990996;28;20683;-76
2022/04/23 10:40:58;;;;;;;0.00;0.00;;;17.60;99.90;;;;;;4972468;28;20284;-77
2022/04/23 10:43:28;;;;;;;0.00;0.00;;;17.70;99.90;;;;;;4974989;28;20231;-76
2022/04/23 10:45:55;;;;;;;0.00;0.00;;;17.80;99.90;;;;;;4969271;28;20201;-76
2022/04/23 10:48:26;;;;;;;0.00;0.00;;;17.80;99.90;;;;;;4984621;28;20210;-76
2022/04/23 10:51:01;;;;;;;0.00;0.00;;;17.80;99.90;;;;;;4986288;28;20249;-77
2022/04/23 10:53:29;;;;;;;0.00;0.00;;;17.90;99.90;;;;;;4976996;28;20304;-77
2022/04/23 10:56:14;;;;;;;0.00;0.00;;;17.70;99.90;;;;;;4970133;28;20213;-77
2022/04/23 10:58:42;;;;;;;0.00;0.00;;;;;;;;;;4992272;28;20231;-77
2022/04/23 11:01:21;;;;;;;0.00;0.00;;;18.00;99.90;;;;;;4987300;28;20252;-77
2022/04/23 11:03:59;;;;;;;0.00;0.00;;;18.10;99.90;;;;;;4983929;28;20262;-77
2022/04/23 11:12:32;;;;;;;0.00;0.00;;;18.10;99.90;;;;;;4943883;28;20204;-76
2022/04/23 11:15:01;;;;;;;0.00;0.00;;;18.30;99.90;;;;;;4969879;28;20273;-75
2022/04/23 11:17:53;;;;;;;0.00;0.00;;;18.30;99.90;;;;;;4987505;28;20237;-78
2022/04/23 11:20:38;;;;;;;0.00;0.00;;;18.10;99.90;;;;;;4978646;28;20266;-76
2022/04/23 11:23:05;;;;;;;0.00;0.00;;;18.10;99.90;;;;;;4967319;28;20294;-76
2022/04/23 11:25:32;;;;;;;0.00;0.00;;;18.20;99.90;;;;;;4967822;28;20248;-75
2022/04/23 11:28:23;;;;;;;0.00;0.00;;;18.10;99.90;;;;;;4969209;28;20228;-76
2022/04/23 11:30:51;;;;;;;0.00;0.00;;;18.20;99.90;;;;;;4983366;28;20205;-75
2022/04/23 11:33:18;;;;;;;0.00;0.00;;;18.10;99.90;;;;;;4967453;28;20243;-76
2022/04/23 11:35:45;;;;;;;0.00;0.00;;;18.00;99.90;;;;;;4982673;28;20296;-79
2022/04/23 11:38:24;;;;;;;0.00;0.00;;;18.00;99.90;;;;;;4973317;28;20216;-78
2022/04/23 11:40:51;;;;;;;0.00;0.00;;;17.80;99.90;;;;;;4994884;28;20208;-79
2022/04/23 11:43:34;;;;;;;0.00;0.00;;;18.00;99.90;;;;;;4969842;28;20205;-77
2022/04/23 11:46:02;;;;;;;0.00;0.00;;;18.20;99.90;;;;;;4984457;28;20592;-78
2022/04/23 11:48:40;;;;;;;0.00;0.00;;;18.30;99.90;;;;;;4977865;28;20217;-78
2022/04/23 11:51:12;;;;;;;0.00;0.00;;;18.30;99.90;;;;;;4984399;28;20209;-78
2022/04/23 11:53:55;;;;;;;0.00;0.00;;;18.20;99.90;;;;;;4979220;28;20283;-79
2022/04/23 11:56:24;;;;;;;0.00;0.00;;;18.10;99.90;;;;;;4986603;28;20237;-78
2022/04/23 11:58:54;;;;;;;0.00;0.00;;;;;;;;;;4966128;28;20209;-77
2022/04/23 12:01:25;;;;;;;0.00;0.00;;;;;;;;;;4986805;28;20240;-78
2022/04/23 12:03:53;;;;;;;0.00;0.00;;;;;;;;;;4985227;28;20205;-78
2022/04/23 12:06:20;;;;;;;0.00;0.00;;;;;;;;;;4967749;28;20209;-79
2022/04/23 12:08:47;;;;;;;0.00;0.00;;;;;;;;;;4980975;28;20206;-79
2022/04/23 12:11:26;;;;;;;0.00;0.00;;;;;;;;;;4965911;28;20248;-80
2022/04/23 12:13:55;;;;;;;0.00;0.00;;;;;;;;;;4994094;28;20208;-79
2022/04/23 12:16:36;;;;;;;0.00;0.00;;;;;;;;;;4972965;28;20233;-78
2022/04/23 12:19:05;;;;;;;0.00;0.00;;;;;;;;;;4964730;28;20248;-80
2022/04/23 12:21:32;;;;;;;0.00;0.00;;;;;;;;;;4989587;28;20217;-78
2022/04/23 12:24:00;;;;;;;0.00;0.00;;;;;;;;;;4971260;28;20671;-78
2022/04/23 12:26:31;;;;;;;0.00;0.00;;;;;;;;;;4966516;28;20224;-77
2022/04/23 12:43:17;;;;;;;0.00;0.00;;;;;;;;;;4986572;28;20296;-76
2022/04/23 12:45:45;;;;;;;0.00;0.00;;;;;;;;;;4981909;28;20667;-78
2022/04/23 12:48:14;;;;;;;0.00;0.00;;;;;;;;;;4971990;28;20217;-76
2022/04/23 12:50:42;;;;;;;0.00;0.00;;;;;;;;;;4989992;28;20204;-77
2022/04/23 12:53:10;;;;;;;0.00;0.00;;;;;;;;;;4982592;28;20256;-78
2022/04/23 12:55:37;;;;;;;0.07;0.07;;;;;;;;;;4964980;28;20197;-78
2022/04/23 12:58:09;;;;;;;0.00;0.00;;;;;;;;;;4965047;28;20239;-78
2022/04/23 13:00:38;;;;;;;0.00;0.00;;;;;;;;;;4969601;28;20197;-78
2022/04/23 13:03:26;;;;;;;0.00;0.00;;;;;;;;;;4981595;28;20197;-76
2022/04/23 13:05:53;;;;;;;0.00;0.00;;;;;;;;;;4962888;28;20212;-77
2022/04/23 13:13:54;;;;;;;0.00;0.00;;;;;;;;;;4986018;28;20296;-78
2022/04/23 13:16:21;;;;;;;0.00;0.00;;;;;;;;;;4986187;28;20275;-78
2022/04/23 13:18:50;;;;;;;0.00;0.00;;;;;;;;;;4985931;28;20200;-78
2022/04/23 13:21:18;;;;;;;0.00;0.00;;;;;;;;;;4966013;28;20255;-77
2022/04/23 13:23:46;;;;;;;0.00;0.00;;;;;;;;;;4990284;28;20209;-78
2022/04/23 13:26:13;;;;;;;0.00;0.00;;;;;;;;;;4973910;28;20224;-77
2022/04/23 13:28:41;;;;;;;0.00;0.00;;;;;;;;;;4964338;28;20213;-78
2022/04/23 13:31:09;;;;;;;0.00;0.00;;;;;;;;;;4964410;28;20275;-78
2022/04/23 13:33:36;;;;;;;0.00;0.00;;;;;;;;;;4980943;28;20693;-78
2022/04/23 13:36:06;;;;;;;0.00;0.00;;;;;;;;;;4976057;28;20205;-78
2022/04/23 13:38:34;;;;;;;0.00;0.00;;;;;;;;;;4985083;28;20221;-77
2022/04/23 13:41:03;;;;;;;0.00;0.00;;;;;;;;;;4964976;28;20228;-78
2022/04/23 13:43:30;;;;;;;0.00;0.00;;;;;;;;;;4980387;28;20201;-79
2022/04/23 13:45:58;;;;;;;0.00;0.00;;;;;;;;;;4963363;28;20687;-78
2022/04/23 13:48:26;;;;;;;0.00;0.00;;;;;;;;;;4965072;28;20307;-77
2022/04/23 13:50:54;;;;;;;0.00;0.00;;;;;;;;;;4964544;28;20242;-78
2022/04/23 13:53:22;;;;;;;0.00;0.00;;;;;;;;;;4987227;28;20308;-77
2022/04/23 13:55:50;;;;;;;0.00;0.00;;;;;;;;;;4975060;28;20335;-78
2022/04/23 13:58:17;;;;;;;0.00;0.00;;;;;;;;;;4972965;28;20320;-79
2022/04/23 14:00:45;;;;;;;0.00;0.00;;;;;;;;;;4984864;28;20220;-77
2022/04/23 14:11:29;;;;;;;0.00;0.00;;;;;;;;;;4992060;28;20204;-78
2022/04/23 14:13:56;;;;;;;0.00;0.00;;;;;;;;;;4971827;28;20205;-78
2022/04/23 14:16:24;;;;;;;0.00;0.00;;;;;;;;;;4974886;28;20313;-78
2022/04/23 14:18:51;;;;;;;0.00;0.00;;;;;;;;;;4967926;28;20772;-78
2022/04/23 14:21:19;;;;;;;0.00;0.00;;;;;;;;;;4985353;28;20204;-78
2022/04/23 14:23:47;;;;;;;0.00;0.00;;;;;;;;;;4972187;28;20220;-78
2022/04/23 14:26:15;;;;;;;0.00;0.00;;;;;;;;;;4978983;28;20825;-78
2022/04/23 14:28:42;;;;;;;0.00;0.00;;;;;;;;;;4967103;28;20207;-78
2022/04/23 14:31:09;;;;;;;0.00;0.00;;;;;;;;;;4974557;28;20224;-79
2022/04/23 14:33:37;;;;;;;0.00;0.00;;;;;;;;;;4977057;28;20267;-78
2022/04/23 14:36:04;;;;;;;0.00;0.00;;;;;;;;;;4967967;28;20204;-79
2022/04/23 14:38:32;;;;;;;0.00;0.00;;;;;;;;;;4989813;28;20223;-79
2022/04/23 14:41:01;;;;;;;0.00;0.00;;;;;;;;;;4985419;28;20256;-78
2022/04/23 14:43:29;;;;;;;0.00;0.00;;;;;;;;;;4984386;28;20276;-78
2022/04/23 14:45:56;;;;;;;0.00;0.00;;;;;;;;;;4988424;28;20263;-78
2022/04/23 14:48:27;;;;;;;0.00;0.00;;;;;;;;;;4972225;28;20240;-77
2022/04/23 14:53:39;;;;;;;0.00;0.00;;;;;;;;;;4990070;28;20197;-78
2022/04/23 14:56:08;;;;;;;0.00;0.00;;;;;;;;;;4974448;28;20225;-78
2022/04/23 14:58:36;;;;;;;0.00;0.00;;;;;;;;;;4985889;28;20224;-79
2022/04/23 15:01:03;;;;;;;0.00;0.00;;;;;;;;;;4985892;28;20212;-78
2022/04/23 15:03:31;;;;;;;0.00;0.00;;;;;;;;;;4992838;28;20201;-79
2022/04/23 15:05:59;;;;;;;0.00;0.00;;;;;;;;;;4969719;28;20213;-78
2022/04/23 15:08:27;;;;;;;0.00;0.00;;;;;;;;;;4988050;28;20202;-79